Aviation Digital Data Service (ADDS)

Output produced by METARs form (2313 UTC 28 August 2014)
found at http://www.aviationweather.gov/adds/metars/
 
METAR text: KSBP 282256Z 31014KT 10SM CLR 24/14 A2997 RMK AO2 SLP147 T02390144 $
Conditions at: KSBP (SAN LUIS OBISPO , CA, US) observed 2256 UTC 28 August 2014
Temperature: 23.9°C (75°F)
Dewpoint: 14.4°C (58°F) [RH = 55%]
Pressure (altimeter): 29.97 inches Hg (1015.0 mb)
[Sea-level pressure: 1014.7 mb]
Winds: from the NW (310 degrees) at 16 MPH (14 knots; 7.3 m/s)
Visibility: 10 or more miles (16+ km)
Ceiling: at least 12,000 feet AGL
Clouds: sky clear below 12,000 feet AGL
Weather:
SOME DATA ABOVE MAY BE INACCURATE!!!
"$" is an indication the sensor requires maintenance

METAR text: KSBP 282156Z 31015KT 10SM CLR 25/14 A2998 RMK AO2 SLP151 T02500144 $
Conditions at: KSBP (SAN LUIS OBISPO , CA, US) observed 2156 UTC 28 August 2014
Temperature: 25.0°C (77°F)
Dewpoint: 14.4°C (58°F) [RH = 52%]
Pressure (altimeter): 29.98 inches Hg (1015.3 mb)
[Sea-level pressure: 1015.1 mb]
Winds: from the NW (310 degrees) at 17 MPH (15 knots; 7.8 m/s)
Visibility: 10 or more miles (16+ km)
Ceiling: at least 12,000 feet AGL
Clouds: sky clear below 12,000 feet AGL
Weather:
SOME DATA ABOVE MAY BE INACCURATE!!!
"$" is an indication the sensor requires maintenance

METAR text: KSBP 282056Z 31010KT 10SM CLR 26/13 A2999 RMK AO2 SLP154 T02610133 58017 $
Conditions at: KSBP (SAN LUIS OBISPO , CA, US) observed 2056 UTC 28 August 2014
Temperature: 26.1°C (79°F)
Dewpoint: 13.3°C (56°F) [RH = 45%]
Pressure (altimeter): 29.99 inches Hg (1015.7 mb)
[Sea-level pressure: 1015.4 mb]
Winds: from the NW (310 degrees) at 12 MPH (10 knots; 5.2 m/s)
Visibility: 10 or more miles (16+ km)
Ceiling: at least 12,000 feet AGL
Clouds: sky clear below 12,000 feet AGL
Weather:
SOME DATA ABOVE MAY BE INACCURATE!!!
"$" is an indication the sensor requires maintenance

METAR text: KSBP 281956Z VRB05KT 10SM CLR 26/13 A3001 RMK AO2 SLP159 T02560128 $
Conditions at: KSBP (SAN LUIS OBISPO , CA, US) observed 1956 UTC 28 August 2014
Temperature: 25.6°C (78°F)
Dewpoint: 12.8°C (55°F) [RH = 45%]
Pressure (altimeter): 30.01 inches Hg (1016.3 mb)
[Sea-level pressure: 1015.9 mb]
Winds: variable direction winds at 6 MPH (5 knots; 2.6 m/s)
Visibility: 10 or more miles (16+ km)
Ceiling: at least 12,000 feet AGL
Clouds: sky clear below 12,000 feet AGL
Weather:
SOME DATA ABOVE MAY BE INACCURATE!!!
"$" is an indication the sensor requires maintenance

METAR text: KSBP 281856Z 31007KT 10SM CLR 24/13 A3003 RMK AO2 SLP167 T02390133 $
Conditions at: KSBP (SAN LUIS OBISPO , CA, US) observed 1856 UTC 28 August 2014
Temperature: 23.9°C (75°F)
Dewpoint: 13.3°C (56°F) [RH = 51%]
Pressure (altimeter): 30.03 inches Hg (1017.0 mb)
[Sea-level pressure: 1016.7 mb]
Winds: from the NW (310 degrees) at 8 MPH (7 knots; 3.6 m/s)
Visibility: 10 or more miles (16+ km)
Ceiling: at least 12,000 feet AGL
Clouds: sky clear below 12,000 feet AGL
Weather:
SOME DATA ABOVE MAY BE INACCURATE!!!
"$" is an indication the sensor requires maintenance

METAR text: KSBP 281756Z 29005KT 10SM CLR 22/13 A3005 RMK AO2 SLP171 T02220133 10228 20150 58002 $
Conditions at: KSBP (SAN LUIS OBISPO , CA, US) observed 1756 UTC 28 August 2014
Temperature: 22.2°C (72°F)
Dewpoint: 13.3°C (56°F) [RH = 57%]
Pressure (altimeter): 30.05 inches Hg (1017.7 mb)
[Sea-level pressure: 1017.1 mb]
Winds: from the WNW (290 degrees) at 6 MPH (5 knots; 2.6 m/s)
Visibility: 10 or more miles (16+ km)
Ceiling: at least 12,000 feet AGL
Clouds: sky clear below 12,000 feet AGL
Weather:
SOME DATA ABOVE MAY BE INACCURATE!!!
"$" is an indication the sensor requires maintenance

METAR text: KSBP 281656Z 31005KT 10SM CLR 19/13 A3005 RMK AO2 SLP173 T01940133 $
Conditions at: KSBP (SAN LUIS OBISPO , CA, US) observed 1656 UTC 28 August 2014
Temperature: 19.4°C (67°F)
Dewpoint: 13.3°C (56°F) [RH = 68%]
Pressure (altimeter): 30.05 inches Hg (1017.7 mb)
[Sea-level pressure: 1017.3 mb]
Winds: from the NW (310 degrees) at 6 MPH (5 knots; 2.6 m/s)
Visibility: 10 or more miles (16+ km)
Ceiling: at least 12,000 feet AGL
Clouds: sky clear below 12,000 feet AGL
Weather:
SOME DATA ABOVE MAY BE INACCURATE!!!
"$" is an indication the sensor requires maintenance

METAR text: KSBP 281556Z 31008KT 10SM FEW009 17/14 A3005 RMK AO2 SLP174 T01720139 $
Conditions at: KSBP (SAN LUIS OBISPO , CA, US) observed 1556 UTC 28 August 2014
Temperature: 17.2°C (63°F)
Dewpoint: 13.9°C (57°F) [RH = 81%]
Pressure (altimeter): 30.05 inches Hg (1017.7 mb)
[Sea-level pressure: 1017.4 mb]
Winds: from the NW (310 degrees) at 9 MPH (8 knots; 4.2 m/s)
Visibility: 10 or more miles (16+ km)
Ceiling: at least 12,000 feet AGL
Clouds: few clouds at 900 feet AGL
Weather:
SOME DATA ABOVE MAY BE INACCURATE!!!
"$" is an indication the sensor requires maintenance

METAR text: KSBP 281553Z 30007KT 10SM SCT009 18/14 A3005 RMK AO2 $
Conditions at: KSBP (SAN LUIS OBISPO , CA, US) observed 1553 UTC 28 August 2014
Temperature: 18.0°C (64°F)
Dewpoint: 14.0°C (57°F) [RH = 77%]
Pressure (altimeter): 30.05 inches Hg (1017.7 mb)
Winds: from the WNW (300 degrees) at 8 MPH (7 knots; 3.6 m/s)
Visibility: 10 or more miles (16+ km)
Ceiling: at least 12,000 feet AGL
Clouds: scattered clouds at 900 feet AGL
Weather:
SOME DATA ABOVE MAY BE INACCURATE!!!
"$" is an indication the sensor requires maintenance